Time;durP1;ratioP1;P1;durP2;ratioP2;P2;SDS_P1;SDS_P2;PMS_P1;PMS_P2;Temp;Humidity;BMP_temperature;BMP_pressure;BME280_temperature;BME280_humidity;BME280_pressure;Samples;Min_cycle;Max_cycle;Signal;HPM_P1;HPM_P2
2023/04/30 00:00:20;;;;;;;;;;;;;;;;;;4346281;33;19984;-78
2023/04/30 00:02:45;;;;;;;;;;;;;;;;;;4347327;33;20280;-78
2023/04/30 00:05:10;;;;;;;;;;;;;;;;;;4352189;33;19940;-79
2023/04/30 00:07:35;;;;;;;;;;;;;;;;;;4350036;33;19950;-77
2023/04/30 00:10:00;;;;;;;;;;;;;;;;;;4347456;33;19943;-79
2023/04/30 00:12:26;;;;;;;;;;;;;;;;;;4357527;33;19950;-77
2023/04/30 00:14:51;;;;;;;;;;;;;;;;;;4346359;33;19938;-78
2023/04/30 00:17:16;;;;;;;;;;;;;;;;;;4346718;32;19935;-77
2023/04/30 00:19:41;;;;;;;;;;;;;;;;;;4348464;33;19947;-78
2023/04/30 00:22:06;;;;;;;;;;;;;;;;;;4353807;33;19953;-78
2023/04/30 00:24:31;;;;;;;;;;;;;;;;;;4352307;33;19943;-78
2023/04/30 00:26:56;;;;;;;;;;;;;;;;;;4347882;33;19982;-79
2023/04/30 00:29:21;;;;;;;;;;;;;;;;;;4346773;33;19942;-77
2023/04/30 00:31:47;;;;;;;;;;;;;;;;;;4346811;33;19949;-79
2023/04/30 00:34:12;;;;;;;;;;;;;;;;;;4357712;32;20350;-78
2023/04/30 00:36:39;;;;;;;;;;;;;;;;;;4358457;32;19979;-78
2023/04/30 00:39:04;;;;;;;;;;;;;;;;;;4337082;33;19939;-77
2023/04/30 00:41:29;;;;;;;;;;;;;;;;;;4335396;33;19953;-77
2023/04/30 00:43:54;;;;;;;;;;;;;;;;;;4334840;33;19949;-78
2023/04/30 00:46:19;;;;;;;;;;;;;;;;;;4332240;33;19965;-77
2023/04/30 00:48:45;;;;;;;;;;;;;;;;;;4332071;33;19944;-78
2023/04/30 00:51:10;;;;;;;;;;;;;;;;;;4331511;33;19935;-77
2023/04/30 00:53:35;;;;;;;;;;;;;;;;;;4331935;33;19935;-77
2023/04/30 00:56:00;;;;;;;;;;;;;;;;;;4340607;33;19943;-78
2023/04/30 00:58:25;;;;;;;;;;;;;;;;;;4342653;33;19943;-77
2023/04/30 01:00:50;;;;;;;;;;;;;;;;;;4331397;33;20027;-77
2023/04/30 01:03:15;;;;;;;;;;;;;;;;;;4330794;33;20313;-77
2023/04/30 01:05:41;;;;;;;;;;;;;;;;;;4330862;33;20297;-77
2023/04/30 01:08:06;;;;;;;;;;;;;;;;;;4342593;33;19994;-78
2023/04/30 01:10:32;;;;;;;;;;;;;;;;;;4331098;33;20297;-78
2023/04/30 01:12:57;;;;;;;;;;;;;;;;;;4331582;33;19949;-79
2023/04/30 01:15:22;;;;;;;;;;;;;;;;;;4331935;33;20309;-77
2023/04/30 01:17:48;;;;;;;;;;;;;;;;;;4331788;33;20190;-78
2023/04/30 01:20:13;;;;;;;;;;;;;;;;;;4330571;33;20003;-77
2023/04/30 01:22:38;;;;;;;;;;;;;;;;;;4330941;33;19970;-77
2023/04/30 01:25:03;;;;;;;;;;;;;;;;;;4330698;33;19998;-79
2023/04/30 01:27:28;;;;;;;;;;;;;;;;;;4332346;33;19983;-77
2023/04/30 01:29:54;;;;;;;;;;;;;;;;;;4343096;33;20368;-77
2023/04/30 01:32:19;;;;;;;;;;;;;;;;;;4333443;33;19950;-77
2023/04/30 01:34:44;;;;;;;;;;;;;;;;;;4336809;33;20359;-78
2023/04/30 01:37:10;;;;;;;;;;;;;;;;;;4332272;33;19935;-78
2023/04/30 01:39:35;;;;;;;;;;;;;;;;;;4331607;33;19995;-78
2023/04/30 01:42:00;;;;;;;;;;;;;;;;;;4341848;33;19958;-78
2023/04/30 01:44:25;;;;;;;;;;;;;;;;;;4341636;33;20264;-78
2023/04/30 01:46:50;;;;;;;;;;;;;;;;;;4330570;33;20253;-78
2023/04/30 01:49:15;;;;;;;;;;;;;;;;;;4341909;33;19979;-78
2023/04/30 01:51:40;;;;;;;;;;;;;;;;;;4332243;33;19943;-78
2023/04/30 01:54:06;;;;;;;;;;;;;;;;;;4342168;33;19939;-78
2023/04/30 01:56:31;;;;;;;;;;;;;;;;;;4333505;33;19939;-78
2023/04/30 01:58:57;;;;;;;;;;;;;;;;;;4333991;33;19953;-78
2023/04/30 02:01:22;;;;;;;;;;;;;;;;;;4333616;33;19944;-78
2023/04/30 02:03:47;;;;;;;;;;;;;;;;;;4333090;33;19974;-77
2023/04/30 02:06:12;;;;;;;;;;;;;;;;;;4333840;33;19965;-78
2023/04/30 02:08:37;;;;;;;;;;;;;;;;;;4333175;33;20296;-77
2023/04/30 02:11:02;;;;;;;;;;;;;;;;;;4332437;33;20237;-78
2023/04/30 02:13:27;;;;;;;;;;;;;;;;;;4333214;33;19931;-77
2023/04/30 02:15:52;;;;;;;;;;;;;;;;;;4333804;33;19935;-78
2023/04/30 02:18:17;;;;;;;;;;;;;;;;;;4335144;33;20026;-78
2023/04/30 02:20:43;;;;;;;;;;;;;;;;;;4332735;33;20312;-78
2023/04/30 02:23:08;;;;;;;;;;;;;;;;;;4341743;33;19962;-78
2023/04/30 02:25:36;;;;;;;;;;;;;;;;;;4338675;33;20303;-77
2023/04/30 02:28:02;;;;;;;;;;;;;;;;;;4334035;33;20339;-77
2023/04/30 02:30:27;;;;;;;;;;;;;;;;;;4333815;33;19939;-76
2023/04/30 02:32:52;;;;;;;;;;;;;;;;;;4332535;33;19943;-77
2023/04/30 02:35:17;;;;;;;;;;;;;;;;;;4337392;33;20280;-78
2023/04/30 02:37:42;;;;;;;;;;;;;;;;;;4335113;33;19987;-78
2023/04/30 02:40:07;;;;;;;;;;;;;;;;;;4333488;33;19959;-79
2023/04/30 02:42:32;;;;;;;;;;;;;;;;;;4340393;33;19935;-77
2023/04/30 02:44:58;;;;;;;;;;;;;;;;;;4340599;33;19974;-78
2023/04/30 02:47:23;;;;;;;;;;;;;;;;;;4336754;33;19943;-77
2023/04/30 02:49:48;;;;;;;;;;;;;;;;;;4346244;33;19953;-77
2023/04/30 02:52:13;;;;;;;;;;;;;;;;;;4346725;33;19943;-78
2023/04/30 02:54:38;;;;;;;;;;;;;;;;;;4348004;33;19977;-77
2023/04/30 02:57:03;;;;;;;;;;;;;;;;;;4361180;33;19923;-77
2023/04/30 02:59:28;;;;;;;;;;;;;;;;;;4347868;33;19982;-77
2023/04/30 03:01:53;;;;;;;;;;;;;;;;;;4361069;33;19936;-77
2023/04/30 03:04:19;;;;;;;;;;;;;;;;;;4348373;33;19966;-78
2023/04/30 03:06:44;;;;;;;;;;;;;;;;;;4356950;33;19939;-76
2023/04/30 03:09:10;;;;;;;;;;;;;;;;;;4344471;33;19939;-78
2023/04/30 03:11:36;;;;;;;;;;;;;;;;;;4334793;33;19954;-78
2023/04/30 03:14:01;;;;;;;;;;;;;;;;;;4332872;33;20379;-77
2023/04/30 03:16:28;;;;;;;;;;;;;;;;;;4333816;33;20293;-78
2023/04/30 03:18:54;;;;;;;;;;;;;;;;;;4343558;33;19931;-78
2023/04/30 03:21:19;;;;;;;;;;;;;;;;;;4333689;33;20012;-78
2023/04/30 03:23:45;;;;;;;;;;;;;;;;;;4344399;33;19943;-78
2023/04/30 03:26:10;;;;;;;;;;;;;;;;;;4333303;33;19954;-78
2023/04/30 03:28:35;;;;;;;;;;;;;;;;;;4332383;33;20325;-78
2023/04/30 03:31:03;;;;;;;;;;;;;;;;;;4343230;33;20006;-78
2023/04/30 03:33:29;;;;;;;;;;;;;;;;;;4332296;33;19982;-78
2023/04/30 03:35:54;;;;;;;;;;;;;;;;;;4332094;33;19977;-78
2023/04/30 03:38:19;;;;;;;;;;;;;;;;;;4333262;33;20218;-78
2023/04/30 03:40:44;;;;;;;;;;;;;;;;;;4333908;33;19954;-78
2023/04/30 03:43:09;;;;;;;;;;;;;;;;;;4341986;33;19983;-77
2023/04/30 03:45:35;;;;;;;;;;;;;;;;;;4339830;33;19939;-78
2023/04/30 03:48:00;;;;;;;;;;;;;;;;;;4333389;33;19943;-77
2023/04/30 03:50:25;;;;;;;;;;;;;;;;;;4332604;33;19935;-77
2023/04/30 03:52:50;;;;;;;;;;;;;;;;;;4332551;33;19939;-77
2023/04/30 03:55:15;;;;;;;;;;;;;;;;;;4331755;33;19973;-77
2023/04/30 03:57:41;;;;;;;;;;;;;;;;;;4330603;33;19931;-77
2023/04/30 04:00:09;;;;;;;;;;;;;;;;;;4331541;33;19955;-77
2023/04/30 04:02:35;;;;;;;;;;;;;;;;;;4330328;33;19939;-77
2023/04/30 04:05:00;;;;;;;;;;;;;;;;;;4332810;33;19935;-78
2023/04/30 04:07:25;;;;;;;;;;;;;;;;;;4332964;33;19935;-78
2023/04/30 04:09:50;;;;;;;;;;;;;;;;;;4331820;33;19949;-78
2023/04/30 04:12:15;;;;;;;;;;;;;;;;;;4330302;33;19939;-78
2023/04/30 04:14:40;;;;;;;;;;;;;;;;;;4330093;33;20304;-79
2023/04/30 04:17:05;;;;;;;;;;;;;;;;;;4329907;33;19939;-79
2023/04/30 04:19:30;;;;;;;;;;;;;;;;;;4330230;33;19965;-78
2023/04/30 04:21:56;;;;;;;;;;;;;;;;;;4330160;33;20344;-80
2023/04/30 04:24:21;;;;;;;;;;;;;;;;;;4331650;33;19944;-79
2023/04/30 04:26:46;;;;;;;;;;;;;;;;;;4334915;33;19939;-78
2023/04/30 04:29:12;;;;;;;;;;;;;;;;;;4337414;33;20007;-78
2023/04/30 04:31:37;;;;;;;;;;;;;;;;;;4347850;33;20022;-78
2023/04/30 04:34:03;;;;;;;;;;;;;;;;;;4344430;33;20283;-78
2023/04/30 04:36:29;;;;;;;;;;;;;;;;;;4346740;33;19966;-79
2023/04/30 04:38:56;;;;;;;;;;;;;;;;;;4345366;33;19942;-79
2023/04/30 04:41:22;;;;;;;;;;;;;;;;;;4346197;33;19935;-79
2023/04/30 04:43:47;;;;;;;;;;;;;;;;;;4345923;33;19958;-79
2023/04/30 04:46:15;;;;;;;;;;;;;;;;;;4345967;33;19954;-79
2023/04/30 04:48:40;;;;;;;;;;;;;;;;;;4345825;33;20221;-79
2023/04/30 04:51:05;;;;;;;;;;;;;;;;;;4344761;33;20288;-78
2023/04/30 04:53:30;;;;;;;;;;;;;;;;;;4346869;33;20335;-78
2023/04/30 04:55:56;;;;;;;;;;;;;;;;;;4345637;33;19939;-78
2023/04/30 04:58:21;;;;;;;;;;;;;;;;;;4345033;33;19939;-78
2023/04/30 05:00:46;;;;;;;;;;;;;;;;;;4346486;33;19943;-78
2023/04/30 05:03:13;;;;;;;;;;;;;;;;;;4345957;33;19931;-79
2023/04/30 05:05:38;;;;;;;;;;;;;;;;;;4345792;33;19986;-78
2023/04/30 05:08:03;;;;;;;;;;;;;;;;;;4348013;33;19973;-79
2023/04/30 05:10:28;;;;;;;;;;;;;;;;;;4350023;33;19974;-78
2023/04/30 05:12:53;;;;;;;;;;;;;;;;;;4344692;33;20253;-78
2023/04/30 05:15:18;;;;;;;;;;;;;;;;;;4346633;33;20025;-77
2023/04/30 05:17:43;;;;;;;;;;;;;;;;;;4345838;33;20332;-78
2023/04/30 05:20:09;;;;;;;;;;;;;;;;;;4344464;33;19990;-79
2023/04/30 05:22:34;;;;;;;;;;;;;;;;;;4344365;33;20366;-78
2023/04/30 05:24:59;;;;;;;;;;;;;;;;;;4345841;33;20346;-78
2023/04/30 05:27:25;;;;;;;;;;;;;;;;;;4346066;33;19934;-78
2023/04/30 05:29:50;;;;;;;;;;;;;;;;;;4347432;33;19942;-78
2023/04/30 05:32:16;;;;;;;;;;;;;;;;;;4348418;33;19961;-77
2023/04/30 05:34:41;;;;;;;;;;;;;;;;;;4347197;33;19988;-79
2023/04/30 05:37:06;;;;;;;;;;;;;;;;;;4348497;33;19950;-78
2023/04/30 05:39:31;;;;;;;;;;;;;;;;;;4349148;33;20312;-78
2023/04/30 05:41:56;;;;;;;;;;;;;;;;;;4348157;33;20000;-78
2023/04/30 05:44:21;;;;;;;;;;;;;;;;;;4348872;33;19938;-78
2023/04/30 05:46:46;;;;;;;;;;;;;;;;;;4349112;33;19954;-78
2023/04/30 05:49:11;;;;;;;;;;;;;;;;;;4349482;33;19935;-78
2023/04/30 05:51:36;;;;;;;;;;;;;;;;;;4351083;33;19966;-79
2023/04/30 05:54:01;;;;;;;;;;;;;;;;;;4352017;33;19942;-78
2023/04/30 05:56:27;;;;;;;;;;;;;;;;;;4358015;33;19949;-79
2023/04/30 05:58:52;;;;;;;;;;;;;;;;;;4359834;33;19931;-78
2023/04/30 06:01:18;;;;;;;;;;;;;;;;;;4351698;33;20375;-78
2023/04/30 06:03:43;;;;;;;;;;;;;;;;;;4349776;33;19982;-79
2023/04/30 06:06:08;;;;;;;;;;;;;;;;;;4348557;33;19973;-78
2023/04/30 06:08:33;;;;;;;;;;;;;;;;;;4349340;33;19985;-79
2023/04/30 06:10:59;;;;;;;;;;;;;;;;;;4348907;33;19978;-79
2023/04/30 06:13:24;;;;;;;;;;;;;;;;;;4347171;33;19938;-80
2023/04/30 06:15:49;;;;;;;;;;;;;;;;;;4348284;33;19974;-79
2023/04/30 06:18:14;;;;;;;;;;;;;;;;;;4347022;33;19950;-77
2023/04/30 06:20:39;;;;;;;;;;;;;;;;;;4348437;33;19943;-79
2023/04/30 06:23:05;;;;;;;;;;;;;;;;;;4346477;33;20062;-78
2023/04/30 06:25:30;;;;;;;;;;;;;;;;;;4348224;33;19973;-79
2023/04/30 06:27:55;;;;;;;;;;;;;;;;;;4348426;33;19934;-77
2023/04/30 06:30:20;;;;;;;;;;;;;;;;;;4351661;33;19983;-77
2023/04/30 06:32:45;;;;;;;;;;;;;;;;;;4353415;33;19939;-78
2023/04/30 06:35:10;;;;;;;;;;;;;;;;;;4352146;33;19947;-78
2023/04/30 06:37:36;;;;;;;;;;;;;;;;;;4347811;33;19939;-78
2023/04/30 06:40:01;;;;;;;;;;;;;;;;;;4347624;33;19943;-78
2023/04/30 06:42:26;;;;;;;;;;;;;;;;;;4347638;33;19954;-80
2023/04/30 06:44:51;;;;;;;;;;;;;;;;;;4347912;33;19934;-78
2023/04/30 06:47:17;;;;;;;;;;;;;;;;;;4347635;33;19974;-78
2023/04/30 06:49:42;;;;;;;;;;;;;;;;;;4349539;33;20325;-79
2023/04/30 06:52:07;;;;;;;;;;;;;;;;;;4347778;33;19943;-78
2023/04/30 06:54:32;;;;;;;;;;;;;;;;;;4346962;33;19966;-79
2023/04/30 06:56:57;;;;;;;;;;;;;;;;;;4349207;32;19939;-78
2023/04/30 06:59:22;;;;;;;;;;;;;;;;;;4358983;32;19981;-77
2023/04/30 07:01:47;;;;;;;;;;;;;;;;;;4359028;32;19935;-78
2023/04/30 07:04:12;;;;;;;;;;;;;;;;;;4348728;32;19962;-78
2023/04/30 07:06:37;;;;;;;;;;;;;;;;;;4347866;32;19953;-77
2023/04/30 07:09:02;;;;;;;;;;;;;;;;;;4348012;32;19934;-78
2023/04/30 07:11:28;;;;;;;;;;;;;;;;;;4347758;32;20304;-79
2023/04/30 07:13:53;;;;;;;;;;;;;;;;;;4347201;32;19977;-78
2023/04/30 07:16:18;;;;;;;;;;;;;;;;;;4347365;33;19978;-79
2023/04/30 07:18:43;;;;;;;;;;;;;;;;;;4347754;32;19935;-78
2023/04/30 07:21:09;;;;;;;;;;;;;;;;;;4360290;32;20386;-78
2023/04/30 07:23:34;;;;;;;;;;;;;;;;;;4360743;32;19954;-79
2023/04/30 07:25:59;;;;;;;;;;;;;;;;;;4348056;32;20354;-78
2023/04/30 07:28:24;;;;;;;;;;;;;;;;;;4358211;32;20257;-78
2023/04/30 07:30:49;;;;;;;;;;;;;;;;;;4348924;32;20299;-79
2023/04/30 07:33:15;;;;;;;;;;;;;;;;;;4347894;33;19977;-77
2023/04/30 07:35:40;;;;;;;;;;;;;;;;;;4348039;33;19950;-79
2023/04/30 07:38:05;;;;;;;;;;;;;;;;;;4348539;32;19943;-78
2023/04/30 07:40:30;;;;;;;;;;;;;;;;;;4348361;32;20256;-77
2023/04/30 07:42:55;;;;;;;;;;;;;;;;;;4346705;32;20275;-77
2023/04/30 07:45:20;;;;;;;;;;;;;;;;;;4347190;33;19935;-78
2023/04/30 07:47:46;;;;;;;;;;;;;;;;;;4347079;33;19946;-78
2023/04/30 07:50:11;;;;;;;;;;;;;;;;;;4346901;32;19951;-78
2023/04/30 07:52:36;;;;;;;;;;;;;;;;;;4345995;33;19973;-77
2023/04/30 07:55:02;;;;;;;;;;;;;;;;;;4346295;32;19943;-77
2023/04/30 07:57:27;;;;;;;;;;;;;;;;;;4347517;33;19950;-77
2023/04/30 07:59:52;;;;;;;;;;;;;;;;;;4346591;33;19942;-78
2023/04/30 08:02:17;;;;;;;;;;;;;;;;;;4346421;33;19934;-78
2023/04/30 08:04:42;;;;;;;;;;;;;;;;;;4345168;33;19938;-76
2023/04/30 08:07:07;;;;;;;;;;;;;;;;;;4345206;33;19953;-77
2023/04/30 08:09:33;;;;;;;;;;;;;;;;;;4353317;33;19946;-77
2023/04/30 08:11:58;;;;;;;;;;;;;;;;;;4356365;33;19973;-77
2023/04/30 08:14:23;;;;;;;;;;;;;;;;;;4348242;33;19957;-77
2023/04/30 08:16:48;;;;;;;;;;;;;;;;;;4347220;33;19942;-77
2023/04/30 08:19:13;;;;;;;;;;;;;;;;;;4345395;33;20324;-78
2023/04/30 08:21:38;;;;;;;;;;;;;;;;;;4348130;33;20017;-78
2023/04/30 08:24:04;;;;;;;;;;;;;;;;;;4350270;33;19942;-78
2023/04/30 08:26:29;;;;;;;;;;;;;;;;;;4348069;33;20415;-78
2023/04/30 08:28:54;;;;;;;;;;;;;;;;;;4346534;33;19935;-78
2023/04/30 08:31:19;;;;;;;;;;;;;;;;;;4346073;33;19943;-78
2023/04/30 08:33:44;;;;;;;;;;;;;;;;;;4346299;33;19934;-77
2023/04/30 08:36:10;;;;;;;;;;;;;;;;;;4348249;33;19985;-77
2023/04/30 08:38:35;;;;;;;;;;;;;;;;;;4346863;33;20029;-77
2023/04/30 08:41:00;;;;;;;;;;;;;;;;;;4346571;33;19942;-78
2023/04/30 08:43:25;;;;;;;;;;;;;;;;;;4345873;33;20362;-78
2023/04/30 08:45:50;;;;;;;;;;;;;;;;;;4345636;33;19934;-78
2023/04/30 08:48:16;;;;;;;;;;;;;;;;;;4346257;33;19991;-78
2023/04/30 08:50:41;;;;;;;;;;;;;;;;;;4345644;33;19949;-76
2023/04/30 08:53:06;;;;;;;;;;;;;;;;;;4345801;33;20260;-77
2023/04/30 08:55:47;;;;;;;;;;;;;;;;;;4350271;33;20338;-78
2023/04/30 08:58:13;;;;;;;;;;;;;;;;;;4346692;33;19958;-78
2023/04/30 09:00:41;;;;;;;;;;;;;;;;;;4346533;33;19942;-77
2023/04/30 09:03:06;;;;;;;;;;;;;;;;;;4346544;33;19942;-78
2023/04/30 09:05:31;;;;;;;;;;;;;;;;;;4347644;33;19977;-78
2023/04/30 09:07:57;;;;;;;;;;;;;;;;;;4347563;33;20292;-77
2023/04/30 09:10:22;;;;;;;;;;;;;;;;;;4349057;33;19943;-79
2023/04/30 09:12:47;;;;;;;;;;;;;;;;;;4349280;33;19943;-78
2023/04/30 09:15:12;;;;;;;;;;;;;;;;;;4349089;33;19949;-77
2023/04/30 09:17:37;;;;;;;;;;;;;;;;;;4353259;33;19986;-77
2023/04/30 09:20:03;;;;;;;;;;;;;;;;;;4355026;33;19942;-77
2023/04/30 09:22:28;;;;;;;;;;;;;;;;;;4353228;33;20047;-78
2023/04/30 09:24:53;;;;;;;;;;;;;;;;;;4362355;33;19945;-77
2023/04/30 09:27:18;;;;;;;;;;;;;;;;;;4359032;33;19943;-77
2023/04/30 09:29:44;;;;;;;;;;;;;;;;;;4349616;33;19942;-78
2023/04/30 09:32:09;;;;;;;;;;;;;;;;;;4348146;33;20001;-78
2023/04/30 09:34:37;;;;;;;;;;;;;;;;;;4348667;33;20268;-77
2023/04/30 09:37:02;;;;;;;;;;;;;;;;;;4349269;33;19934;-78
2023/04/30 09:39:28;;;;;;;;;;;;;;;;;;4347334;33;19943;-77
2023/04/30 09:41:53;;;;;;;;;;;;;;;;;;4348836;33;19943;-77
2023/04/30 09:44:18;;;;;;;;;;;;;;;;;;4348352;33;19950;-77
2023/04/30 09:46:43;;;;;;;;;;;;;;;;;;4348674;33;19948;-78
2023/04/30 09:49:08;;;;;;;;;;;;;;;;;;4347212;33;19978;-77
2023/04/30 09:51:34;;;;;;;;;;;;;;;;;;4348900;33;19939;-77
2023/04/30 09:53:59;;;;;;;;;;;;;;;;;;4349645;33;20332;-76
2023/04/30 09:56:25;;;;;;;;;;;;;;;;;;4347060;33;20284;-77
2023/04/30 09:58:51;;;;;;;;;;;;;;;;;;4347838;33;19935;-76
2023/04/30 10:01:16;;;;;;;;;;;;;;;;;;4349323;33;19951;-78
2023/04/30 10:03:41;;;;;;;;;;;;;;;;;;4347985;33;19978;-78
2023/04/30 10:06:06;;;;;;;;;;;;;;;;;;4347870;33;19938;-78
2023/04/30 10:08:32;;;;;;;;;;;;;;;;;;4348236;33;19973;-77
2023/04/30 10:10:57;;;;;;;;;;;;;;;;;;4348212;33;19993;-77
2023/04/30 10:13:22;;;;;;;;;;;;;;;;;;4347584;33;19983;-78
2023/04/30 10:15:47;;;;;;;;;;;;;;;;;;4347109;33;20296;-79
2023/04/30 10:18:12;;;;;;;;;;;;;;;;;;4346596;33;19935;-78
2023/04/30 10:20:38;;;;;;;;;;;;;;;;;;4349777;33;19942;-77
2023/04/30 10:23:03;;;;;;;;;;;;;;;;;;4350000;33;19946;-76
2023/04/30 10:25:28;;;;;;;;;;;;;;;;;;4349215;33;19935;-78
2023/04/30 10:27:53;;;;;;;;;;;;;;;;;;4348077;33;19950;-79
2023/04/30 10:30:18;;;;;;;;;;;;;;;;;;4348079;33;19943;-77
2023/04/30 10:32:43;;;;;;;;;;;;;;;;;;4348118;33;20300;-78
2023/04/30 10:35:08;;;;;;;;;;;;;;;;;;4346605;33;19939;-78
2023/04/30 10:37:33;;;;;;;;;;;;;;;;;;4350653;33;20229;-77
2023/04/30 10:39:59;;;;;;;;;;;;;;;;;;4347173;33;19939;-77
2023/04/30 10:42:24;;;;;;;;;;;;;;;;;;4346289;33;19941;-77
2023/04/30 10:44:49;;;;;;;;;;;;;;;;;;4345986;33;20003;-77
2023/04/30 10:47:15;;;;;;;;;;;;;;;;;;4347166;33;20360;-77
2023/04/30 10:49:42;;;;;;;;;;;;;;;;;;4345740;33;20346;-78
2023/04/30 10:52:08;;;;;;;;;;;;;;;;;;4347144;33;19935;-78
2023/04/30 10:54:33;;;;;;;;;;;;;;;;;;4346878;33;19981;-77
2023/04/30 10:56:58;;;;;;;;;;;;;;;;;;4347111;33;20380;-78
2023/04/30 10:59:24;;;;;;;;;;;;;;;;;;4347081;33;19981;-77
2023/04/30 11:01:49;;;;;;;;;;;;;;;;;;4347077;33;20064;-77
2023/04/30 11:04:14;;;;;;;;;;;;;;;;;;4347519;33;20319;-77
2023/04/30 11:06:39;;;;;;;;;;;;;;;;;;4346956;33;19986;-79
2023/04/30 11:09:04;;;;;;;;;;;;;;;;;;4347043;33;19954;-76
2023/04/30 11:11:30;;;;;;;;;;;;;;;;;;4346873;33;19970;-78
2023/04/30 11:13:55;;;;;;;;;;;;;;;;;;4347192;33;19943;-77
2023/04/30 11:16:20;;;;;;;;;;;;;;;;;;4347086;33;20054;-77
2023/04/30 11:18:45;;;;;;;;;;;;;;;;;;4346951;33;19983;-77
2023/04/30 11:21:10;;;;;;;;;;;;;;;;;;4346597;33;20281;-80
2023/04/30 11:23:35;;;;;;;;;;;;;;;;;;4346494;33;20343;-77
2023/04/30 11:26:00;;;;;;;;;;;;;;;;;;4345668;33;19939;-77
2023/04/30 11:28:26;;;;;;;;;;;;;;;;;;4346251;33;19957;-78
2023/04/30 11:30:51;;;;;;;;;;;;;;;;;;4345197;33;19978;-77
2023/04/30 11:33:16;;;;;;;;;;;;;;;;;;4348388;33;19987;-77
2023/04/30 11:35:41;;;;;;;;;;;;;;;;;;4347223;33;19959;-77
2023/04/30 11:38:07;;;;;;;;;;;;;;;;;;4346852;33;19982;-77
2023/04/30 11:40:32;;;;;;;;;;;;;;;;;;4357672;33;19956;-78
2023/04/30 11:42:57;;;;;;;;;;;;;;;;;;4352283;33;20342;-77
2023/04/30 11:45:22;;;;;;;;;;;;;;;;;;4347014;33;19954;-77
2023/04/30 11:47:47;;;;;;;;;;;;;;;;;;4346978;33;19939;-77
2023/04/30 11:50:12;;;;;;;;;;;;;;;;;;4346086;33;19977;-77
2023/04/30 11:52:38;;;;;;;;;;;;;;;;;;4347052;33;19934;-77
2023/04/30 11:55:03;;;;;;;;;;;;;;;;;;4346781;33;19943;-77
2023/04/30 11:57:29;;;;;;;;;;;;;;;;;;4346684;33;19986;-77
2023/04/30 11:59:54;;;;;;;;;;;;;;;;;;4346168;33;20308;-76
2023/04/30 12:02:19;;;;;;;;;;;;;;;;;;4347266;33;19974;-77
2023/04/30 12:04:47;;;;;;;;;;;;;;;;;;4346372;33;20237;-77
2023/04/30 12:07:12;;;;;;;;;;;;;;;;;;4344942;33;19942;-77
2023/04/30 12:09:37;;;;;;;;;;;;;;;;;;4344596;33;19994;-78
2023/04/30 12:12:02;;;;;;;;;;;;;;;;;;4346469;33;20257;-78
2023/04/30 12:14:32;;;;;;;;;;;;;;;;;;4344653;33;19959;-77
2023/04/30 12:16:59;;;;;;;;;;;;;;;;;;4348474;33;19939;-76
2023/04/30 12:19:24;;;;;;;;;;;;;;;;;;4346446;33;20354;-78
2023/04/30 12:21:49;;;;;;;;;;;;;;;;;;4346800;33;19962;-77
2023/04/30 12:24:14;;;;;;;;;;;;;;;;;;4346253;33;19973;-77
2023/04/30 12:26:39;;;;;;;;;;;;;;;;;;4346776;33;19957;-76
2023/04/30 12:29:05;;;;;;;;;;;;;;;;;;4346165;33;19949;-77
2023/04/30 12:31:30;;;;;;;;;;;;;;;;;;4346993;33;20366;-77
2023/04/30 12:33:56;;;;;;;;;;;;;;;;;;4344883;33;19931;-77
2023/04/30 12:36:21;;;;;;;;;;;;;;;;;;4344855;33;19974;-77
2023/04/30 12:38:46;;;;;;;;;;;;;;;;;;4347355;33;19943;-76
2023/04/30 12:41:16;;;;;;;;;;;;;;;;;;4347380;33;19994;-78
2023/04/30 12:43:41;;;;;;;;;;;;;;;;;;4345845;33;19954;-76
2023/04/30 12:46:06;;;;;;;;;;;;;;;;;;4345834;33;19950;-76
2023/04/30 12:48:31;;;;;;;;;;;;;;;;;;4346220;33;19951;-76
2023/04/30 12:50:56;;;;;;;;;;;;;;;;;;4346078;33;19939;-78
2023/04/30 12:53:22;;;;;;;;;;;;;;;;;;4345995;33;19970;-77
2023/04/30 12:55:47;;;;;;;;;;;;;;;;;;4345800;33;20237;-77
2023/04/30 12:58:13;;;;;;;;;;;;;;;;;;4344611;33;19946;-78
2023/04/30 13:00:38;;;;;;;;;;;;;;;;;;4346536;33;19938;-77
2023/04/30 13:03:03;;;;;;;;;;;;;;;;;;4345507;33;19947;-76
2023/04/30 13:05:29;;;;;;;;;;;;;;;;;;4345959;33;20029;-77
2023/04/30 13:07:54;;;;;;;;;;;;;;;;;;4344392;33;19935;-77
2023/04/30 13:10:19;;;;;;;;;;;;;;;;;;4345360;33;19950;-77
2023/04/30 13:12:44;;;;;;;;;;;;;;;;;;4345951;33;19966;-77
2023/04/30 13:15:09;;;;;;;;;;;;;;;;;;4346826;33;19981;-76
2023/04/30 13:17:35;;;;;;;;;;;;;;;;;;4348152;33;19938;-76
2023/04/30 13:20:00;;;;;;;;;;;;;;;;;;4347375;33;20259;-77
2023/04/30 13:22:28;;;;;;;;;;;;;;;;;;4347751;33;20387;-77
2023/04/30 13:24:53;;;;;;;;;;;;;;;;;;4348415;33;19939;-76
2023/04/30 13:27:18;;;;;;;;;;;;;;;;;;4351194;33;19943;-76
2023/04/30 13:29:43;;;;;;;;;;;;;;;;;;4355435;33;19946;-76
2023/04/30 13:32:09;;;;;;;;;;;;;;;;;;4352295;33;19943;-76
2023/04/30 13:34:34;;;;;;;;;;;;;;;;;;4347467;33;20003;-76
2023/04/30 13:36:59;;;;;;;;;;;;;;;;;;4349906;33;20001;-76
2023/04/30 13:39:24;;;;;;;;;;;;;;;;;;4353583;33;19934;-78
2023/04/30 13:41:49;;;;;;;;;;;;;;;;;;4356128;33;20009;-77
2023/04/30 13:44:15;;;;;;;;;;;;;;;;;;4351861;33;19977;-76
2023/04/30 13:46:40;;;;;;;;;;;;;;;;;;4347563;33;19976;-77
2023/04/30 13:49:06;;;;;;;;;;;;;;;;;;4346295;33;19943;-76
2023/04/30 13:51:31;;;;;;;;;;;;;;;;;;4346501;33;20342;-76
2023/04/30 13:53:56;;;;;;;;;;;;;;;;;;4346672;33;19991;-75
2023/04/30 13:56:21;;;;;;;;;;;;;;;;;;4348326;33;19962;-76
2023/04/30 13:58:46;;;;;;;;;;;;;;;;;;4347956;33;19935;-76
2023/04/30 14:01:13;;;;;;;;;;;;;;;;;;4348183;33;19961;-75
2023/04/30 14:03:38;;;;;;;;;;;;;;;;;;4347899;33;19934;-76
2023/04/30 14:06:04;;;;;;;;;;;;;;;;;;4349209;33;19973;-76
2023/04/30 14:08:30;;;;;;;;;;;;;;;;;;4349328;33;19975;-77
2023/04/30 14:10:56;;;;;;;;;;;;;;;;;;4348682;33;20312;-77
2023/04/30 14:13:21;;;;;;;;;;;;;;;;;;4349062;33;19954;-76
2023/04/30 14:15:46;;;;;;;;;;;;;;;;;;4347844;33;19997;-76
2023/04/30 14:18:11;;;;;;;;;;;;;;;;;;4348381;33;19943;-77
2023/04/30 14:20:37;;;;;;;;;;;;;;;;;;4347645;33;19986;-77
2023/04/30 14:23:02;;;;;;;;;;;;;;;;;;4346953;33;19942;-75
2023/04/30 14:25:27;;;;;;;;;;;;;;;;;;4348332;33;19966;-75
2023/04/30 14:27:52;;;;;;;;;;;;;;;;;;4347429;33;19935;-77
2023/04/30 14:30:17;;;;;;;;;;;;;;;;;;4346272;33;20234;-76
2023/04/30 14:32:42;;;;;;;;;;;;;;;;;;4348444;33;19949;-76
2023/04/30 14:35:08;;;;;;;;;;;;;;;;;;4347340;33;19935;-76
2023/04/30 14:37:33;;;;;;;;;;;;;;;;;;4346486;33;19941;-76
2023/04/30 14:40:00;;;;;;;;;;;;;;;;;;4348674;33;20005;-76
2023/04/30 14:42:25;;;;;;;;;;;;;;;;;;4349455;33;20349;-77
2023/04/30 14:44:52;;;;;;;;;;;;;;;;;;4346567;33;20275;-76
2023/04/30 14:47:18;;;;;;;;;;;;;;;;;;4347342;33;19971;-75
2023/04/30 14:49:44;;;;;;;;;;;;;;;;;;4347455;33;19997;-76
2023/04/30 14:52:09;;;;;;;;;;;;;;;;;;4348913;33;20344;-76
2023/04/30 14:54:34;;;;;;;;;;;;;;;;;;4347126;33;19957;-75
2023/04/30 14:56:59;;;;;;;;;;;;;;;;;;4347750;32;19939;-76
2023/04/30 14:59:24;;;;;;;;;;;;;;;;;;4348544;33;19939;-75
2023/04/30 15:01:49;;;;;;;;;;;;;;;;;;4347784;33;19966;-76
2023/04/30 15:04:15;;;;;;;;;;;;;;;;;;4347434;33;19943;-76
2023/04/30 15:06:40;;;;;;;;;;;;;;;;;;4345833;33;19943;-77
2023/04/30 15:09:06;;;;;;;;;;;;;;;;;;4347298;33;19950;-75
2023/04/30 15:11:31;;;;;;;;;;;;;;;;;;4349003;33;20316;-76
2023/04/30 15:13:56;;;;;;;;;;;;;;;;;;4358316;33;19942;-77
2023/04/30 15:16:21;;;;;;;;;;;;;;;;;;4350387;33;20349;-77
2023/04/30 15:18:47;;;;;;;;;;;;;;;;;;4349710;33;19939;-77
2023/04/30 15:21:12;;;;;;;;;;;;;;;;;;4351344;33;19945;-76
2023/04/30 15:23:37;;;;;;;;;;;;;;;;;;4347477;33;19939;-76
2023/04/30 15:26:03;;;;;;;;;;;;;;;;;;4346747;33;19958;-76
2023/04/30 15:28:28;;;;;;;;;;;;;;;;;;4347480;33;19978;-76
2023/04/30 15:30:53;;;;;;;;;;;;;;;;;;4347082;33;20268;-74
2023/04/30 15:33:18;;;;;;;;;;;;;;;;;;4345176;33;19958;-75
2023/04/30 15:35:43;;;;;;;;;;;;;;;;;;4346788;33;19947;-75
2023/04/30 15:38:08;;;;;;;;;;;;;;;;;;4347488;33;19943;-76
2023/04/30 15:40:34;;;;;;;;;;;;;;;;;;4346667;33;19939;-76
2023/04/30 15:42:59;;;;;;;;;;;;;;;;;;4346717;33;19982;-76
2023/04/30 15:45:26;;;;;;;;;;;;;;;;;;4347216;33;19949;-75
2023/04/30 15:47:51;;;;;;;;;;;;;;;;;;4345519;33;19943;-76
2023/04/30 15:50:16;;;;;;;;;;;;;;;;;;4345226;33;19935;-77
2023/04/30 15:52:41;;;;;;;;;;;;;;;;;;4346761;33;19994;-76
2023/04/30 15:55:06;;;;;;;;;;;;;;;;;;4346362;33;19949;-76
2023/04/30 15:57:31;;;;;;;;;;;;;;;;;;4346100;33;20316;-76
2023/04/30 15:59:57;;;;;;;;;;;;;;;;;;4346517;33;19946;-76
2023/04/30 16:02:22;;;;;;;;;;;;;;;;;;4345446;33;19952;-75
2023/04/30 16:04:47;;;;;;;;;;;;;;;;;;4347366;33;19956;-76
2023/04/30 16:07:12;;;;;;;;;;;;;;;;;;4346269;33;20317;-76
2023/04/30 16:09:37;;;;;;;;;;;;;;;;;;4345671;33;19998;-75
2023/04/30 16:12:03;;;;;;;;;;;;;;;;;;4346592;33;19938;-76
2023/04/30 16:14:28;;;;;;;;;;;;;;;;;;4345512;33;19974;-77
2023/04/30 16:16:53;;;;;;;;;;;;;;;;;;4347370;33;19978;-75
2023/04/30 16:19:18;;;;;;;;;;;;;;;;;;4346171;33;19970;-76
2023/04/30 16:21:43;;;;;;;;;;;;;;;;;;4346958;33;20301;-75
2023/04/30 16:24:09;;;;;;;;;;;;;;;;;;4346110;33;20014;-75
2023/04/30 16:26:35;;;;;;;;;;;;;;;;;;4347421;33;19957;-76
2023/04/30 16:29:00;;;;;;;;;;;;;;;;;;4346531;33;20334;-74
2023/04/30 16:31:25;;;;;;;;;;;;;;;;;;4350026;33;19943;-75